KJKJ

Moorhead Municipal Airport

Moorhead, Minnesota, USA
METAR KJKJ 202356Z AUTO 34006KT 10SM CLR 21/13 A3008 RMK AO2
Observed Flight Rules
Aug-20 @ 23:56 UTC (14 minutes ago) Visual Flight Rules
Wind Visibility Clouds
340° at 6 knots 10 miles
  • Clear skies
Temperatures Readings
Current 21°C / 70°F
Dewpoint 13°C / 55°F
Humidity 60%
Altimeter 30.08" Hg
Pressure 1019 hPa
Elevation 280
METAR KJKJ 202356Z AUTO 34006KT 10SM CLR 21/13 A3008 RMK AO2
Observed Flight Rules
Aug-20 @ 23:56 UTC
(14 minutes ago)
VFR
Wind Visibility
340° at 6 knots 10 miles
Clouds
  • Clear skies
Temperature Dewpoint
21°C / 70°F 13°C / 55°F
Humidity Altimeter Pressure
60% 30.08" Hg 1019 hPa